sensor_id;sensor_type;location;lat;lon;timestamp;temperature;humidity
43808;DHT22;29438;50.664;10.098;2023-07-02T00:00:36;16.00;90.80
43808;DHT22;29438;50.664;10.098;2023-07-02T00:03:04;16.00;91.00
43808;DHT22;29438;50.664;10.098;2023-07-02T00:05:29;15.90;90.90
43808;DHT22;29438;50.664;10.098;2023-07-02T00:07:55;15.90;91.00
43808;DHT22;29438;50.664;10.098;2023-07-02T00:10:20;15.90;91.10
43808;DHT22;29438;50.664;10.098;2023-07-02T00:12:46;16.00;91.10
43808;DHT22;29438;50.664;10.098;2023-07-02T00:15:12;16.00;91.10
43808;DHT22;29438;50.664;10.098;2023-07-02T00:17:37;15.90;91.00
43808;DHT22;29438;50.664;10.098;2023-07-02T00:20:07;15.90;90.80
43808;DHT22;29438;50.664;10.098;2023-07-02T00:22:40;15.90;90.70
43808;DHT22;29438;50.664;10.098;2023-07-02T00:25:07;16.00;90.70
43808;DHT22;29438;50.664;10.098;2023-07-02T00:27:33;16.00;90.80
43808;DHT22;29438;50.664;10.098;2023-07-02T00:29:58;16.00;90.70
43808;DHT22;29438;50.664;10.098;2023-07-02T00:32:24;16.00;90.40
43808;DHT22;29438;50.664;10.098;2023-07-02T00:34:49;16.00;90.40
43808;DHT22;29438;50.664;10.098;2023-07-02T00:37:15;16.00;90.50
43808;DHT22;29438;50.664;10.098;2023-07-02T00:39:40;15.80;90.00
43808;DHT22;29438;50.664;10.098;2023-07-02T00:42:06;15.70;89.90
43808;DHT22;29438;50.664;10.098;2023-07-02T00:44:33;15.70;90.40
43808;DHT22;29438;50.664;10.098;2023-07-02T00:47:09;15.70;90.80
43808;DHT22;29438;50.664;10.098;2023-07-02T00:49:35;15.60;91.00
43808;DHT22;29438;50.664;10.098;2023-07-02T00:52:00;15.70;91.10
43808;DHT22;29438;50.664;10.098;2023-07-02T00:54:29;15.60;91.20
43808;DHT22;29438;50.664;10.098;2023-07-02T00:56:55;15.60;91.40
43808;DHT22;29438;50.664;10.098;2023-07-02T00:59:21;15.50;91.60
43808;DHT22;29438;50.664;10.098;2023-07-02T01:01:47;15.40;91.80
43808;DHT22;29438;50.664;10.098;2023-07-02T01:04:18;15.30;92.00
43808;DHT22;29438;50.664;10.098;2023-07-02T01:06:44;15.20;92.20
43808;DHT22;29438;50.664;10.098;2023-07-02T01:09:10;15.20;92.40
43808;DHT22;29438;50.664;10.098;2023-07-02T01:11:44;15.20;92.50
43808;DHT22;29438;50.664;10.098;2023-07-02T01:14:30;15.20;92.70
43808;DHT22;29438;50.664;10.098;2023-07-02T01:16:57;15.20;92.70
43808;DHT22;29438;50.664;10.098;2023-07-02T01:22:11;15.10;92.80
43808;DHT22;29438;50.664;10.098;2023-07-02T01:24:39;15.10;92.80
43808;DHT22;29438;50.664;10.098;2023-07-02T01:27:05;15.10;93.00
43808;DHT22;29438;50.664;10.098;2023-07-02T01:29:30;15.20;93.10
43808;DHT22;29438;50.664;10.098;2023-07-02T01:31:56;15.20;93.20
43808;DHT22;29438;50.664;10.098;2023-07-02T01:34:22;15.20;93.20
43808;DHT22;29438;50.664;10.098;2023-07-02T01:36:48;15.20;93.20
43808;DHT22;29438;50.664;10.098;2023-07-02T01:39:13;15.20;93.00
43808;DHT22;29438;50.664;10.098;2023-07-02T01:41:50;15.20;92.60
43808;DHT22;29438;50.664;10.098;2023-07-02T01:44:16;15.20;92.30
43808;DHT22;29438;50.664;10.098;2023-07-02T01:46:42;15.10;91.90
43808;DHT22;29438;50.664;10.098;2023-07-02T01:49:08;15.10;91.70
43808;DHT22;29438;50.664;10.098;2023-07-02T01:51:34;15.10;91.70
43808;DHT22;29438;50.664;10.098;2023-07-02T01:54:00;15.10;91.80
43808;DHT22;29438;50.664;10.098;2023-07-02T01:56:26;15.00;91.70
43808;DHT22;29438;50.664;10.098;2023-07-02T01:58:52;14.90;91.40
43808;DHT22;29438;50.664;10.098;2023-07-02T02:01:17;14.90;91.50
43808;DHT22;29438;50.664;10.098;2023-07-02T02:03:43;14.90;91.40
43808;DHT22;29438;50.664;10.098;2023-07-02T02:06:08;15.00;91.50
43808;DHT22;29438;50.664;10.098;2023-07-02T02:08:34;15.00;91.50
43808;DHT22;29438;50.664;10.098;2023-07-02T02:10:59;15.00;91.50
43808;DHT22;29438;50.664;10.098;2023-07-02T02:13:26;15.00;91.30
43808;DHT22;29438;50.664;10.098;2023-07-02T02:15:51;15.00;91.40
43808;DHT22;29438;50.664;10.098;2023-07-02T02:18:17;15.00;91.40
43808;DHT22;29438;50.664;10.098;2023-07-02T02:20:42;15.00;91.50
43808;DHT22;29438;50.664;10.098;2023-07-02T02:23:08;14.90;91.40
43808;DHT22;29438;50.664;10.098;2023-07-02T02:25:33;14.90;91.40
43808;DHT22;29438;50.664;10.098;2023-07-02T02:27:59;14.90;91.50
43808;DHT22;29438;50.664;10.098;2023-07-02T02:30:24;14.90;91.60
43808;DHT22;29438;50.664;10.098;2023-07-02T02:32:50;14.90;91.70
43808;DHT22;29438;50.664;10.098;2023-07-02T02:35:15;14.80;91.60
43808;DHT22;29438;50.664;10.098;2023-07-02T02:37:41;14.90;91.60
43808;DHT22;29438;50.664;10.098;2023-07-02T02:40:07;14.90;91.60
43808;DHT22;29438;50.664;10.098;2023-07-02T02:42:35;14.90;91.60
43808;DHT22;29438;50.664;10.098;2023-07-02T02:45:01;14.90;91.50
43808;DHT22;29438;50.664;10.098;2023-07-02T02:47:26;14.80;91.50
43808;DHT22;29438;50.664;10.098;2023-07-02T02:49:52;14.80;91.60
43808;DHT22;29438;50.664;10.098;2023-07-02T02:52:17;14.80;91.30
43808;DHT22;29438;50.664;10.098;2023-07-02T02:54:43;14.80;91.10
43808;DHT22;29438;50.664;10.098;2023-07-02T02:57:09;14.80;90.80
43808;DHT22;29438;50.664;10.098;2023-07-02T02:59:34;14.80;90.70
43808;DHT22;29438;50.664;10.098;2023-07-02T03:02:00;14.80;90.60
43808;DHT22;29438;50.664;10.098;2023-07-02T03:04:25;14.80;90.50
43808;DHT22;29438;50.664;10.098;2023-07-02T03:06:52;14.70;90.50
43808;DHT22;29438;50.664;10.098;2023-07-02T03:09:21;14.70;90.50
43808;DHT22;29438;50.664;10.098;2023-07-02T03:11:47;14.70;90.60
43808;DHT22;29438;50.664;10.098;2023-07-02T03:14:13;14.70;90.70
43808;DHT22;29438;50.664;10.098;2023-07-02T03:16:39;14.70;90.80
43808;DHT22;29438;50.664;10.098;2023-07-02T03:19:05;14.70;90.70
43808;DHT22;29438;50.664;10.098;2023-07-02T03:21:30;14.60;90.60
43808;DHT22;29438;50.664;10.098;2023-07-02T03:23:56;14.60;90.70
43808;DHT22;29438;50.664;10.098;2023-07-02T03:26:21;14.60;90.80
43808;DHT22;29438;50.664;10.098;2023-07-02T03:28:48;14.60;90.70
43808;DHT22;29438;50.664;10.098;2023-07-02T03:31:14;14.70;90.60
43808;DHT22;29438;50.664;10.098;2023-07-02T03:33:40;14.60;90.40
43808;DHT22;29438;50.664;10.098;2023-07-02T03:36:05;14.60;90.30
43808;DHT22;29438;50.664;10.098;2023-07-02T03:38:32;14.70;90.40
43808;DHT22;29438;50.664;10.098;2023-07-02T03:40:57;14.60;90.30
43808;DHT22;29438;50.664;10.098;2023-07-02T03:43:23;14.70;90.60
43808;DHT22;29438;50.664;10.098;2023-07-02T03:45:51;14.70;90.40
43808;DHT22;29438;50.664;10.098;2023-07-02T03:48:16;14.70;90.20
43808;DHT22;29438;50.664;10.098;2023-07-02T03:50:42;14.60;89.90
43808;DHT22;29438;50.664;10.098;2023-07-02T03:53:07;14.70;90.00
43808;DHT22;29438;50.664;10.098;2023-07-02T03:55:33;14.70;90.00
43808;DHT22;29438;50.664;10.098;2023-07-02T03:57:58;14.70;89.80
43808;DHT22;29438;50.664;10.098;2023-07-02T04:00:24;14.60;89.60
43808;DHT22;29438;50.664;10.098;2023-07-02T04:02:49;14.70;89.80
43808;DHT22;29438;50.664;10.098;2023-07-02T04:05:15;14.70;89.80
43808;DHT22;29438;50.664;10.098;2023-07-02T04:07:41;14.70;89.30
43808;DHT22;29438;50.664;10.098;2023-07-02T04:10:07;14.70;89.10
43808;DHT22;29438;50.664;10.098;2023-07-02T04:12:33;14.60;89.30
43808;DHT22;29438;50.664;10.098;2023-07-02T04:14:58;14.60;89.40
43808;DHT22;29438;50.664;10.098;2023-07-02T04:17:24;14.70;89.50
43808;DHT22;29438;50.664;10.098;2023-07-02T04:19:49;14.60;89.30
43808;DHT22;29438;50.664;10.098;2023-07-02T04:22:15;14.50;89.60
43808;DHT22;29438;50.664;10.098;2023-07-02T04:24:41;14.50;89.60
43808;DHT22;29438;50.664;10.098;2023-07-02T04:27:06;14.50;89.90
43808;DHT22;29438;50.664;10.098;2023-07-02T04:29:32;14.50;90.00
43808;DHT22;29438;50.664;10.098;2023-07-02T04:31:57;14.50;89.80
43808;DHT22;29438;50.664;10.098;2023-07-02T04:34:23;14.50;90.00
43808;DHT22;29438;50.664;10.098;2023-07-02T04:36:48;14.60;90.10
43808;DHT22;29438;50.664;10.098;2023-07-02T04:39:14;14.70;90.20
43808;DHT22;29438;50.664;10.098;2023-07-02T04:41:39;14.70;89.80
43808;DHT22;29438;50.664;10.098;2023-07-02T04:44:05;14.80;89.40
43808;DHT22;29438;50.664;10.098;2023-07-02T04:46:30;14.90;89.40
43808;DHT22;29438;50.664;10.098;2023-07-02T04:48:56;14.90;89.30
43808;DHT22;29438;50.664;10.098;2023-07-02T04:51:21;15.00;89.30
43808;DHT22;29438;50.664;10.098;2023-07-02T04:53:47;15.20;88.70
43808;DHT22;29438;50.664;10.098;2023-07-02T04:56:12;15.20;87.60
43808;DHT22;29438;50.664;10.098;2023-07-02T04:58:38;15.20;87.30
43808;DHT22;29438;50.664;10.098;2023-07-02T05:01:04;15.30;87.10
43808;DHT22;29438;50.664;10.098;2023-07-02T05:03:30;15.30;87.30
43808;DHT22;29438;50.664;10.098;2023-07-02T05:05:55;15.20;87.00
43808;DHT22;29438;50.664;10.098;2023-07-02T05:08:21;15.20;86.80
43808;DHT22;29438;50.664;10.098;2023-07-02T05:10:47;15.20;86.50
43808;DHT22;29438;50.664;10.098;2023-07-02T05:13:12;15.20;86.60
43808;DHT22;29438;50.664;10.098;2023-07-02T05:15:37;15.20;86.20
43808;DHT22;29438;50.664;10.098;2023-07-02T05:18:03;15.40;85.70
43808;DHT22;29438;50.664;10.098;2023-07-02T05:20:29;15.60;85.70
43808;DHT22;29438;50.664;10.098;2023-07-02T05:22:54;16.40;84.50
43808;DHT22;29438;50.664;10.098;2023-07-02T05:25:20;17.70;78.80
43808;DHT22;29438;50.664;10.098;2023-07-02T05:27:45;18.10;76.90
43808;DHT22;29438;50.664;10.098;2023-07-02T05:30:11;18.90;74.30
43808;DHT22;29438;50.664;10.098;2023-07-02T05:32:37;19.80;70.70
43808;DHT22;29438;50.664;10.098;2023-07-02T05:35:04;22.80;62.90
43808;DHT22;29438;50.664;10.098;2023-07-02T05:37:30;23.30;59.50
43808;DHT22;29438;50.664;10.098;2023-07-02T05:39:55;22.00;61.00
43808;DHT22;29438;50.664;10.098;2023-07-02T05:42:21;22.50;59.90
43808;DHT22;29438;50.664;10.098;2023-07-02T05:44:46;20.70;63.90
43808;DHT22;29438;50.664;10.098;2023-07-02T05:47:12;19.50;67.10
43808;DHT22;29438;50.664;10.098;2023-07-02T05:49:37;19.10;69.60
43808;DHT22;29438;50.664;10.098;2023-07-02T05:52:03;18.60;70.80
43808;DHT22;29438;50.664;10.098;2023-07-02T05:54:28;20.70;65.50
43808;DHT22;29438;50.664;10.098;2023-07-02T05:56:54;20.60;65.90
43808;DHT22;29438;50.664;10.098;2023-07-02T05:59:20;20.70;65.10
43808;DHT22;29438;50.664;10.098;2023-07-02T06:01:45;20.10;66.50
43808;DHT22;29438;50.664;10.098;2023-07-02T06:04:11;19.50;68.40
43808;DHT22;29438;50.664;10.098;2023-07-02T06:06:36;19.30;69.70
43808;DHT22;29438;50.664;10.098;2023-07-02T06:09:02;19.00;71.30
43808;DHT22;29438;50.664;10.098;2023-07-02T06:11:28;18.50;72.20
43808;DHT22;29438;50.664;10.098;2023-07-02T06:13:53;18.40;73.60
43808;DHT22;29438;50.664;10.098;2023-07-02T06:16:20;18.10;74.10
43808;DHT22;29438;50.664;10.098;2023-07-02T06:18:45;18.00;74.40
43808;DHT22;29438;50.664;10.098;2023-07-02T06:21:11;17.70;74.80
43808;DHT22;29438;50.664;10.098;2023-07-02T06:23:43;17.10;76.30
43808;DHT22;29438;50.664;10.098;2023-07-02T06:26:08;16.90;77.50
43808;DHT22;29438;50.664;10.098;2023-07-02T06:28:34;16.80;77.60
43808;DHT22;29438;50.664;10.098;2023-07-02T06:30:59;16.40;78.70
43808;DHT22;29438;50.664;10.098;2023-07-02T06:33:25;16.30;79.60
43808;DHT22;29438;50.664;10.098;2023-07-02T06:35:50;16.40;80.10
43808;DHT22;29438;50.664;10.098;2023-07-02T06:38:16;16.70;79.80
43808;DHT22;29438;50.664;10.098;2023-07-02T06:40:42;17.10;79.20
43808;DHT22;29438;50.664;10.098;2023-07-02T06:43:07;17.40;77.50
43808;DHT22;29438;50.664;10.098;2023-07-02T06:45:33;17.70;76.00
43808;DHT22;29438;50.664;10.098;2023-07-02T06:47:58;17.80;75.90
43808;DHT22;29438;50.664;10.098;2023-07-02T06:50:24;17.80;75.00
43808;DHT22;29438;50.664;10.098;2023-07-02T06:52:49;18.20;75.30
43808;DHT22;29438;50.664;10.098;2023-07-02T06:55:15;18.70;71.70
43808;DHT22;29438;50.664;10.098;2023-07-02T06:57:44;19.50;69.20
43808;DHT22;29438;50.664;10.098;2023-07-02T07:00:12;19.90;67.70
43808;DHT22;29438;50.664;10.098;2023-07-02T07:02:37;20.60;66.60
43808;DHT22;29438;50.664;10.098;2023-07-02T07:05:03;22.40;61.70
43808;DHT22;29438;50.664;10.098;2023-07-02T07:07:29;23.40;57.00
43808;DHT22;29438;50.664;10.098;2023-07-02T07:09:55;25.30;54.20
43808;DHT22;29438;50.664;10.098;2023-07-02T07:12:20;25.20;50.80
43808;DHT22;29438;50.664;10.098;2023-07-02T07:14:46;24.60;53.30
43808;DHT22;29438;50.664;10.098;2023-07-02T07:17:11;22.20;58.90
43808;DHT22;29438;50.664;10.098;2023-07-02T07:19:37;21.50;61.10
43808;DHT22;29438;50.664;10.098;2023-07-02T07:22:03;20.50;64.30
43808;DHT22;29438;50.664;10.098;2023-07-02T07:24:28;19.90;66.30
43808;DHT22;29438;50.664;10.098;2023-07-02T07:26:54;21.10;64.20
43808;DHT22;29438;50.664;10.098;2023-07-02T07:29:19;22.90;57.20
43808;DHT22;29438;50.664;10.098;2023-07-02T07:31:45;22.20;60.10
43808;DHT22;29438;50.664;10.098;2023-07-02T07:34:11;22.90;56.60
43808;DHT22;29438;50.664;10.098;2023-07-02T07:36:37;22.70;57.00
43808;DHT22;29438;50.664;10.098;2023-07-02T07:39:02;22.40;59.20
43808;DHT22;29438;50.664;10.098;2023-07-02T07:41:28;23.60;55.70
43808;DHT22;29438;50.664;10.098;2023-07-02T07:43:54;23.40;55.10
43808;DHT22;29438;50.664;10.098;2023-07-02T07:46:19;22.00;60.30
43808;DHT22;29438;50.664;10.098;2023-07-02T07:48:45;20.90;61.90
43808;DHT22;29438;50.664;10.098;2023-07-02T07:51:10;20.20;64.40
43808;DHT22;29438;50.664;10.098;2023-07-02T07:53:38;20.20;65.40
43808;DHT22;29438;50.664;10.098;2023-07-02T07:56:05;20.10;65.60
43808;DHT22;29438;50.664;10.098;2023-07-02T07:58:30;21.00;62.60
43808;DHT22;29438;50.664;10.098;2023-07-02T08:00:57;22.00;59.90
43808;DHT22;29438;50.664;10.098;2023-07-02T08:03:23;20.90;61.00
43808;DHT22;29438;50.664;10.098;2023-07-02T08:05:48;19.70;64.90
43808;DHT22;29438;50.664;10.098;2023-07-02T08:08:14;19.10;66.60
43808;DHT22;29438;50.664;10.098;2023-07-02T08:10:39;19.10;68.10
43808;DHT22;29438;50.664;10.098;2023-07-02T08:13:05;18.70;67.00
43808;DHT22;29438;50.664;10.098;2023-07-02T08:15:30;18.30;69.60
43808;DHT22;29438;50.664;10.098;2023-07-02T08:17:56;18.20;70.30
43808;DHT22;29438;50.664;10.098;2023-07-02T08:20:24;18.10;71.60
43808;DHT22;29438;50.664;10.098;2023-07-02T08:22:49;18.40;70.70
43808;DHT22;29438;50.664;10.098;2023-07-02T08:25:17;18.90;68.60
43808;DHT22;29438;50.664;10.098;2023-07-02T08:27:43;19.70;66.70
43808;DHT22;29438;50.664;10.098;2023-07-02T08:30:09;20.70;63.60
43808;DHT22;29438;50.664;10.098;2023-07-02T08:32:35;20.90;62.60
43808;DHT22;29438;50.664;10.098;2023-07-02T08:35:00;20.60;61.80
43808;DHT22;29438;50.664;10.098;2023-07-02T08:37:26;20.40;63.70
43808;DHT22;29438;50.664;10.098;2023-07-02T08:39:51;20.40;63.40
43808;DHT22;29438;50.664;10.098;2023-07-02T08:42:17;20.40;62.90
43808;DHT22;29438;50.664;10.098;2023-07-02T08:44:46;20.30;62.90
43808;DHT22;29438;50.664;10.098;2023-07-02T08:47:12;20.10;63.90
43808;DHT22;29438;50.664;10.098;2023-07-02T08:49:39;19.60;65.40
43808;DHT22;29438;50.664;10.098;2023-07-02T08:52:05;19.70;64.90
43808;DHT22;29438;50.664;10.098;2023-07-02T08:54:31;19.30;64.50
43808;DHT22;29438;50.664;10.098;2023-07-02T08:56:57;19.60;65.00
43808;DHT22;29438;50.664;10.098;2023-07-02T08:59:22;19.80;65.60
43808;DHT22;29438;50.664;10.098;2023-07-02T09:01:50;21.00;60.90
43808;DHT22;29438;50.664;10.098;2023-07-02T09:04:20;22.40;58.50
43808;DHT22;29438;50.664;10.098;2023-07-02T09:06:47;24.70;51.60
43808;DHT22;29438;50.664;10.098;2023-07-02T09:09:13;24.70;49.70
43808;DHT22;29438;50.664;10.098;2023-07-02T09:11:49;24.80;49.70
43808;DHT22;29438;50.664;10.098;2023-07-02T09:14:25;23.80;52.20
43808;DHT22;29438;50.664;10.098;2023-07-02T09:17:02;23.00;53.10
43808;DHT22;29438;50.664;10.098;2023-07-02T09:19:28;23.10;53.00
43808;DHT22;29438;50.664;10.098;2023-07-02T09:21:53;23.50;54.80
43808;DHT22;29438;50.664;10.098;2023-07-02T09:24:22;23.50;51.80
43808;DHT22;29438;50.664;10.098;2023-07-02T09:26:56;23.90;50.70
43808;DHT22;29438;50.664;10.098;2023-07-02T09:29:27;24.40;50.10
43808;DHT22;29438;50.664;10.098;2023-07-02T09:31:54;22.60;52.90
43808;DHT22;29438;50.664;10.098;2023-07-02T09:34:30;21.60;56.50
43808;DHT22;29438;50.664;10.098;2023-07-02T09:36:57;21.70;57.00
43808;DHT22;29438;50.664;10.098;2023-07-02T09:39:41;22.70;53.70
43808;DHT22;29438;50.664;10.098;2023-07-02T09:42:07;23.20;51.50
43808;DHT22;29438;50.664;10.098;2023-07-02T09:44:34;21.70;56.00
43808;DHT22;29438;50.664;10.098;2023-07-02T09:47:07;20.50;59.00
43808;DHT22;29438;50.664;10.098;2023-07-02T09:49:37;21.50;56.00
43808;DHT22;29438;50.664;10.098;2023-07-02T09:52:06;22.70;53.00
43808;DHT22;29438;50.664;10.098;2023-07-02T09:54:32;23.90;51.30
43808;DHT22;29438;50.664;10.098;2023-07-02T09:57:01;23.90;47.60
43808;DHT22;29438;50.664;10.098;2023-07-02T09:59:27;22.20;51.70
43808;DHT22;29438;50.664;10.098;2023-07-02T10:01:53;21.20;55.40
43808;DHT22;29438;50.664;10.098;2023-07-02T10:04:20;22.40;52.80
43808;DHT22;29438;50.664;10.098;2023-07-02T10:06:54;23.70;51.30
43808;DHT22;29438;50.664;10.098;2023-07-02T10:09:21;24.20;49.70
43808;DHT22;29438;50.664;10.098;2023-07-02T10:11:47;23.70;49.00
43808;DHT22;29438;50.664;10.098;2023-07-02T10:14:13;23.20;49.60
43808;DHT22;29438;50.664;10.098;2023-07-02T10:16:58;23.30;50.50
43808;DHT22;29438;50.664;10.098;2023-07-02T10:19:23;23.80;51.10
43808;DHT22;29438;50.664;10.098;2023-07-02T10:22:04;24.10;49.10
43808;DHT22;29438;50.664;10.098;2023-07-02T10:24:32;23.70;48.00
43808;DHT22;29438;50.664;10.098;2023-07-02T10:26:59;23.60;48.80
43808;DHT22;29438;50.664;10.098;2023-07-02T10:29:26;23.60;51.10
43808;DHT22;29438;50.664;10.098;2023-07-02T10:31:54;24.60;48.70
43808;DHT22;29438;50.664;10.098;2023-07-02T10:34:33;24.60;48.40
43808;DHT22;29438;50.664;10.098;2023-07-02T10:37:00;24.20;47.80
43808;DHT22;29438;50.664;10.098;2023-07-02T10:39:26;23.00;50.50
43808;DHT22;29438;50.664;10.098;2023-07-02T10:41:52;22.00;52.40
43808;DHT22;29438;50.664;10.098;2023-07-02T10:44:17;21.00;55.10
43808;DHT22;29438;50.664;10.098;2023-07-02T10:46:47;20.60;56.30
43808;DHT22;29438;50.664;10.098;2023-07-02T10:49:14;21.20;55.70
43808;DHT22;29438;50.664;10.098;2023-07-02T10:51:39;22.70;53.00
43808;DHT22;29438;50.664;10.098;2023-07-02T10:54:05;23.30;50.90
43808;DHT22;29438;50.664;10.098;2023-07-02T10:56:31;24.10;50.30
43808;DHT22;29438;50.664;10.098;2023-07-02T10:58:57;23.30;48.00
43808;DHT22;29438;50.664;10.098;2023-07-02T11:01:28;23.20;50.60
43808;DHT22;29438;50.664;10.098;2023-07-02T11:04:02;23.10;50.90
43808;DHT22;29438;50.664;10.098;2023-07-02T11:06:32;23.10;50.10
43808;DHT22;29438;50.664;10.098;2023-07-02T11:08:59;22.40;52.90
43808;DHT22;29438;50.664;10.098;2023-07-02T11:11:24;22.40;52.10
43808;DHT22;29438;50.664;10.098;2023-07-02T11:13:51;22.40;53.50
43808;DHT22;29438;50.664;10.098;2023-07-02T11:16:27;22.40;51.50
43808;DHT22;29438;50.664;10.098;2023-07-02T11:19:07;21.80;52.60
43808;DHT22;29438;50.664;10.098;2023-07-02T11:21:34;20.90;52.90
43808;DHT22;29438;50.664;10.098;2023-07-02T11:24:08;20.80;51.90
43808;DHT22;29438;50.664;10.098;2023-07-02T11:26:40;21.90;52.20
43808;DHT22;29438;50.664;10.098;2023-07-02T11:29:17;22.80;48.30
43808;DHT22;29438;50.664;10.098;2023-07-02T11:31:43;24.00;46.90
43808;DHT22;29438;50.664;10.098;2023-07-02T11:34:13;24.80;45.70
43808;DHT22;29438;50.664;10.098;2023-07-02T11:36:39;23.20;46.20
43808;DHT22;29438;50.664;10.098;2023-07-02T11:39:04;22.90;48.10
43808;DHT22;29438;50.664;10.098;2023-07-02T11:41:40;22.70;48.50
43808;DHT22;29438;50.664;10.098;2023-07-02T11:44:07;22.50;48.90
43808;DHT22;29438;50.664;10.098;2023-07-02T11:46:32;22.20;49.00
43808;DHT22;29438;50.664;10.098;2023-07-02T11:49:00;22.30;49.50
43808;DHT22;29438;50.664;10.098;2023-07-02T11:51:26;22.40;48.40
43808;DHT22;29438;50.664;10.098;2023-07-02T11:53:52;21.40;50.00
43808;DHT22;29438;50.664;10.098;2023-07-02T11:56:17;21.30;51.90
43808;DHT22;29438;50.664;10.098;2023-07-02T11:58:43;21.50;49.70
43808;DHT22;29438;50.664;10.098;2023-07-02T12:01:08;21.40;49.90
43808;DHT22;29438;50.664;10.098;2023-07-02T12:03:34;21.50;50.00
43808;DHT22;29438;50.664;10.098;2023-07-02T12:05:59;22.20;49.90
43808;DHT22;29438;50.664;10.098;2023-07-02T12:08:25;22.50;47.70
43808;DHT22;29438;50.664;10.098;2023-07-02T12:10:50;22.20;48.40
43808;DHT22;29438;50.664;10.098;2023-07-02T12:13:16;21.80;49.30
43808;DHT22;29438;50.664;10.098;2023-07-02T12:15:42;21.30;49.70
43808;DHT22;29438;50.664;10.098;2023-07-02T12:18:08;21.40;50.00
43808;DHT22;29438;50.664;10.098;2023-07-02T12:20:34;22.00;48.80
43808;DHT22;29438;50.664;10.098;2023-07-02T12:22:59;22.30;48.10
43808;DHT22;29438;50.664;10.098;2023-07-02T12:25:25;22.20;48.00
43808;DHT22;29438;50.664;10.098;2023-07-02T12:27:51;23.00;47.80
43808;DHT22;29438;50.664;10.098;2023-07-02T12:30:16;23.50;46.40
43808;DHT22;29438;50.664;10.098;2023-07-02T12:32:43;22.70;47.20
43808;DHT22;29438;50.664;10.098;2023-07-02T12:35:09;22.40;47.70
43808;DHT22;29438;50.664;10.098;2023-07-02T12:37:35;22.60;48.50
43808;DHT22;29438;50.664;10.098;2023-07-02T12:40:01;22.70;48.30
43808;DHT22;29438;50.664;10.098;2023-07-02T12:42:26;23.10;48.00
43808;DHT22;29438;50.664;10.098;2023-07-02T12:44:52;23.80;46.80
43808;DHT22;29438;50.664;10.098;2023-07-02T12:47:18;23.80;47.50
43808;DHT22;29438;50.664;10.098;2023-07-02T12:49:43;23.20;47.50
43808;DHT22;29438;50.664;10.098;2023-07-02T12:52:09;23.50;47.40
43808;DHT22;29438;50.664;10.098;2023-07-02T12:54:34;23.20;47.20
43808;DHT22;29438;50.664;10.098;2023-07-02T12:57:00;23.50;47.50
43808;DHT22;29438;50.664;10.098;2023-07-02T12:59:25;23.20;47.80
43808;DHT22;29438;50.664;10.098;2023-07-02T13:01:51;23.70;46.40
43808;DHT22;29438;50.664;10.098;2023-07-02T13:04:16;23.20;47.40
43808;DHT22;29438;50.664;10.098;2023-07-02T13:06:42;23.10;48.40
43808;DHT22;29438;50.664;10.098;2023-07-02T13:09:10;22.70;49.00
43808;DHT22;29438;50.664;10.098;2023-07-02T13:11:35;22.70;48.50
43808;DHT22;29438;50.664;10.098;2023-07-02T13:14:01;22.90;49.30
43808;DHT22;29438;50.664;10.098;2023-07-02T13:16:26;23.00;48.80
43808;DHT22;29438;50.664;10.098;2023-07-02T13:18:52;23.20;50.30
43808;DHT22;29438;50.664;10.098;2023-07-02T13:21:20;23.40;48.80
43808;DHT22;29438;50.664;10.098;2023-07-02T13:23:46;23.70;47.80
43808;DHT22;29438;50.664;10.098;2023-07-02T13:26:11;23.60;47.30
43808;DHT22;29438;50.664;10.098;2023-07-02T13:28:37;23.20;48.30
43808;DHT22;29438;50.664;10.098;2023-07-02T13:31:02;23.10;48.20
43808;DHT22;29438;50.664;10.098;2023-07-02T13:33:28;22.70;48.80
43808;DHT22;29438;50.664;10.098;2023-07-02T13:35:54;22.90;49.50
43808;DHT22;29438;50.664;10.098;2023-07-02T13:38:19;22.90;48.10
43808;DHT22;29438;50.664;10.098;2023-07-02T13:40:45;23.40;48.00
43808;DHT22;29438;50.664;10.098;2023-07-02T13:43:10;24.50;45.40
43808;DHT22;29438;50.664;10.098;2023-07-02T13:45:36;24.30;45.00
43808;DHT22;29438;50.664;10.098;2023-07-02T13:48:01;23.80;45.60
43808;DHT22;29438;50.664;10.098;2023-07-02T13:50:27;23.20;46.30
43808;DHT22;29438;50.664;10.098;2023-07-02T13:52:52;23.10;46.70
43808;DHT22;29438;50.664;10.098;2023-07-02T13:55:18;22.90;46.50
43808;DHT22;29438;50.664;10.098;2023-07-02T13:57:44;23.10;46.90
43808;DHT22;29438;50.664;10.098;2023-07-02T14:00:10;22.70;48.10
43808;DHT22;29438;50.664;10.098;2023-07-02T14:02:35;22.70;47.70
43808;DHT22;29438;50.664;10.098;2023-07-02T14:05:01;22.70;47.90
43808;DHT22;29438;50.664;10.098;2023-07-02T14:07:26;23.10;48.40
43808;DHT22;29438;50.664;10.098;2023-07-02T14:09:52;23.50;46.70
43808;DHT22;29438;50.664;10.098;2023-07-02T14:12:17;23.60;47.20
43808;DHT22;29438;50.664;10.098;2023-07-02T14:14:43;24.00;45.80
43808;DHT22;29438;50.664;10.098;2023-07-02T14:17:08;24.00;45.40
43808;DHT22;29438;50.664;10.098;2023-07-02T14:19:34;23.70;45.00
43808;DHT22;29438;50.664;10.098;2023-07-02T14:21:59;23.30;45.60
43808;DHT22;29438;50.664;10.098;2023-07-02T14:24:25;23.00;46.60
43808;DHT22;29438;50.664;10.098;2023-07-02T14:26:51;22.90;46.40
43808;DHT22;29438;50.664;10.098;2023-07-02T14:29:17;22.70;46.80
43808;DHT22;29438;50.664;10.098;2023-07-02T14:31:43;22.50;47.00
43808;DHT22;29438;50.664;10.098;2023-07-02T14:34:08;22.70;48.00
43808;DHT22;29438;50.664;10.098;2023-07-02T14:36:34;23.00;47.80
43808;DHT22;29438;50.664;10.098;2023-07-02T14:38:59;22.40;48.60
43808;DHT22;29438;50.664;10.098;2023-07-02T14:41:25;22.40;48.60
43808;DHT22;29438;50.664;10.098;2023-07-02T14:43:52;22.30;50.40
43808;DHT22;29438;50.664;10.098;2023-07-02T14:46:17;23.20;50.40
43808;DHT22;29438;50.664;10.098;2023-07-02T14:48:43;23.20;48.10
43808;DHT22;29438;50.664;10.098;2023-07-02T14:51:08;22.80;48.10
43808;DHT22;29438;50.664;10.098;2023-07-02T14:53:34;22.90;49.40
43808;DHT22;29438;50.664;10.098;2023-07-02T14:56:02;22.70;49.30
43808;DHT22;29438;50.664;10.098;2023-07-02T14:58:30;22.60;49.10
43808;DHT22;29438;50.664;10.098;2023-07-02T15:00:57;22.10;50.70
43808;DHT22;29438;50.664;10.098;2023-07-02T15:03:24;22.10;50.80
43808;DHT22;29438;50.664;10.098;2023-07-02T15:05:50;22.30;49.90
43808;DHT22;29438;50.664;10.098;2023-07-02T15:08:17;22.30;49.60
43808;DHT22;29438;50.664;10.098;2023-07-02T15:10:48;22.70;50.30
43808;DHT22;29438;50.664;10.098;2023-07-02T15:13:14;22.30;49.80